sensor_id;sensor_type;location;lat;lon;timestamp;P1;durP1;ratioP1;P2;durP2;ratioP2
25123;SDS011;13104;51.030;4.686;2023-09-08T00:01:25;12.98;;;10.02;;
25123;SDS011;13104;51.030;4.686;2023-09-08T00:03:51;12.93;;;9.30;;
25123;SDS011;13104;51.030;4.686;2023-09-08T00:06:17;13.32;;;9.38;;
25123;SDS011;13104;51.030;4.686;2023-09-08T00:08:43;10.93;;;9.40;;
25123;SDS011;13104;51.030;4.686;2023-09-08T00:11:09;12.73;;;9.38;;
25123;SDS011;13104;51.030;4.686;2023-09-08T00:13:36;16.58;;;9.43;;
25123;SDS011;13104;51.030;4.686;2023-09-08T00:16:02;14.18;;;9.52;;
25123;SDS011;13104;51.030;4.686;2023-09-08T00:18:28;14.43;;;9.77;;
25123;SDS011;13104;51.030;4.686;2023-09-08T00:20:54;16.00;;;10.18;;
25123;SDS011;13104;51.030;4.686;2023-09-08T00:23:20;14.63;;;10.20;;
25123;SDS011;13104;51.030;4.686;2023-09-08T00:25:46;15.15;;;10.32;;
25123;SDS011;13104;51.030;4.686;2023-09-08T00:28:14;17.17;;;9.00;;
25123;SDS011;13104;51.030;4.686;2023-09-08T00:30:40;15.13;;;9.93;;
25123;SDS011;13104;51.030;4.686;2023-09-08T00:33:06;17.35;;;9.63;;
25123;SDS011;13104;51.030;4.686;2023-09-08T00:35:34;15.98;;;9.57;;
25123;SDS011;13104;51.030;4.686;2023-09-08T00:38:00;11.25;;;9.07;;
25123;SDS011;13104;51.030;4.686;2023-09-08T00:40:27;12.48;;;9.07;;
25123;SDS011;13104;51.030;4.686;2023-09-08T00:42:53;11.48;;;9.07;;
25123;SDS011;13104;51.030;4.686;2023-09-08T00:45:19;13.52;;;9.70;;
25123;SDS011;13104;51.030;4.686;2023-09-08T00:47:46;14.82;;;9.80;;
25123;SDS011;13104;51.030;4.686;2023-09-08T00:50:12;14.77;;;10.02;;
25123;SDS011;13104;51.030;4.686;2023-09-08T00:52:38;14.30;;;10.35;;
25123;SDS011;13104;51.030;4.686;2023-09-08T00:55:04;12.07;;;9.95;;
25123;SDS011;13104;51.030;4.686;2023-09-08T00:57:31;15.55;;;9.52;;
25123;SDS011;13104;51.030;4.686;2023-09-08T00:59:57;13.63;;;10.95;;
25123;SDS011;13104;51.030;4.686;2023-09-08T01:02:23;12.43;;;10.77;;
25123;SDS011;13104;51.030;4.686;2023-09-08T01:04:49;15.05;;;11.10;;
25123;SDS011;13104;51.030;4.686;2023-09-08T01:07:16;11.75;;;10.52;;
25123;SDS011;13104;51.030;4.686;2023-09-08T01:09:42;14.55;;;10.70;;
25123;SDS011;13104;51.030;4.686;2023-09-08T01:12:08;15.40;;;10.90;;
25123;SDS011;13104;51.030;4.686;2023-09-08T01:14:34;13.88;;;11.10;;
25123;SDS011;13104;51.030;4.686;2023-09-08T01:17:00;16.42;;;10.20;;
25123;SDS011;13104;51.030;4.686;2023-09-08T01:19:26;15.88;;;9.80;;
25123;SDS011;13104;51.030;4.686;2023-09-08T01:21:58;14.15;;;9.65;;
25123;SDS011;13104;51.030;4.686;2023-09-08T01:26:55;16.88;;;10.70;;
25123;SDS011;13104;51.030;4.686;2023-09-08T01:29:21;13.10;;;10.48;;
25123;SDS011;13104;51.030;4.686;2023-09-08T01:31:49;13.60;;;9.57;;
25123;SDS011;13104;51.030;4.686;2023-09-08T01:34:16;11.43;;;9.70;;
25123;SDS011;13104;51.030;4.686;2023-09-08T01:36:42;14.60;;;9.50;;
25123;SDS011;13104;51.030;4.686;2023-09-08T01:39:08;15.00;;;10.20;;
25123;SDS011;13104;51.030;4.686;2023-09-08T01:41:34;12.90;;;9.80;;
25123;SDS011;13104;51.030;4.686;2023-09-08T01:44:00;13.48;;;9.43;;
25123;SDS011;13104;51.030;4.686;2023-09-08T01:46:33;14.30;;;9.20;;
25123;SDS011;13104;51.030;4.686;2023-09-08T01:48:59;15.10;;;9.32;;
25123;SDS011;13104;51.030;4.686;2023-09-08T01:51:25;13.65;;;9.32;;
25123;SDS011;13104;51.030;4.686;2023-09-08T01:53:51;14.27;;;10.07;;
25123;SDS011;13104;51.030;4.686;2023-09-08T01:56:17;13.43;;;9.70;;
25123;SDS011;13104;51.030;4.686;2023-09-08T01:58:43;16.25;;;10.27;;
25123;SDS011;13104;51.030;4.686;2023-09-08T02:01:09;15.25;;;9.00;;
25123;SDS011;13104;51.030;4.686;2023-09-08T02:03:35;11.13;;;9.82;;
25123;SDS011;13104;51.030;4.686;2023-09-08T02:06:02;11.80;;;8.57;;
25123;SDS011;13104;51.030;4.686;2023-09-08T02:08:28;13.75;;;9.30;;
25123;SDS011;13104;51.030;4.686;2023-09-08T02:10:54;16.25;;;10.40;;
25123;SDS011;13104;51.030;4.686;2023-09-08T02:13:20;12.15;;;9.43;;
25123;SDS011;13104;51.030;4.686;2023-09-08T02:15:46;13.80;;;10.52;;
25123;SDS011;13104;51.030;4.686;2023-09-08T02:18:12;13.90;;;11.23;;
25123;SDS011;13104;51.030;4.686;2023-09-08T02:20:38;12.57;;;10.32;;
25123;SDS011;13104;51.030;4.686;2023-09-08T02:23:05;16.88;;;9.93;;
25123;SDS011;13104;51.030;4.686;2023-09-08T02:25:32;12.75;;;9.85;;
25123;SDS011;13104;51.030;4.686;2023-09-08T02:27:58;15.18;;;10.80;;
25123;SDS011;13104;51.030;4.686;2023-09-08T02:30:24;13.02;;;10.65;;
25123;SDS011;13104;51.030;4.686;2023-09-08T02:32:50;14.60;;;11.50;;
25123;SDS011;13104;51.030;4.686;2023-09-08T02:35:17;13.52;;;10.00;;
25123;SDS011;13104;51.030;4.686;2023-09-08T02:37:43;13.55;;;10.45;;
25123;SDS011;13104;51.030;4.686;2023-09-08T02:40:09;14.57;;;10.35;;
25123;SDS011;13104;51.030;4.686;2023-09-08T02:42:35;12.25;;;10.13;;
25123;SDS011;13104;51.030;4.686;2023-09-08T02:45:01;12.90;;;10.57;;
25123;SDS011;13104;51.030;4.686;2023-09-08T02:47:27;15.35;;;10.30;;
25123;SDS011;13104;51.030;4.686;2023-09-08T02:49:53;15.00;;;10.57;;
25123;SDS011;13104;51.030;4.686;2023-09-08T02:52:20;12.65;;;10.27;;
25123;SDS011;13104;51.030;4.686;2023-09-08T02:54:46;14.73;;;9.85;;
25123;SDS011;13104;51.030;4.686;2023-09-08T02:57:12;15.55;;;9.68;;
25123;SDS011;13104;51.030;4.686;2023-09-08T02:59:38;15.27;;;9.77;;
25123;SDS011;13104;51.030;4.686;2023-09-08T03:02:04;15.98;;;10.80;;
25123;SDS011;13104;51.030;4.686;2023-09-08T03:04:30;13.25;;;10.35;;
25123;SDS011;13104;51.030;4.686;2023-09-08T03:06:56;16.70;;;11.75;;
25123;SDS011;13104;51.030;4.686;2023-09-08T03:09:22;17.67;;;11.50;;
25123;SDS011;13104;51.030;4.686;2023-09-08T03:11:48;12.02;;;10.48;;
25123;SDS011;13104;51.030;4.686;2023-09-08T03:14:15;14.52;;;10.35;;
25123;SDS011;13104;51.030;4.686;2023-09-08T03:16:41;13.40;;;10.45;;
25123;SDS011;13104;51.030;4.686;2023-09-08T03:19:07;15.20;;;10.40;;
25123;SDS011;13104;51.030;4.686;2023-09-08T03:21:33;15.57;;;10.95;;
25123;SDS011;13104;51.030;4.686;2023-09-08T03:23:59;15.02;;;12.30;;
25123;SDS011;13104;51.030;4.686;2023-09-08T03:26:25;17.27;;;11.77;;
25123;SDS011;13104;51.030;4.686;2023-09-08T03:28:51;18.25;;;12.23;;
25123;SDS011;13104;51.030;4.686;2023-09-08T03:31:17;17.88;;;11.68;;
25123;SDS011;13104;51.030;4.686;2023-09-08T03:33:43;15.45;;;11.57;;
25123;SDS011;13104;51.030;4.686;2023-09-08T03:36:10;14.38;;;11.52;;
25123;SDS011;13104;51.030;4.686;2023-09-08T03:38:36;18.20;;;12.30;;
25123;SDS011;13104;51.030;4.686;2023-09-08T03:41:02;15.60;;;11.88;;
25123;SDS011;13104;51.030;4.686;2023-09-08T03:43:29;17.48;;;11.93;;
25123;SDS011;13104;51.030;4.686;2023-09-08T03:45:56;16.08;;;12.27;;
25123;SDS011;13104;51.030;4.686;2023-09-08T03:48:22;17.10;;;11.65;;
25123;SDS011;13104;51.030;4.686;2023-09-08T03:50:48;15.38;;;11.98;;
25123;SDS011;13104;51.030;4.686;2023-09-08T03:53:14;17.42;;;12.05;;
25123;SDS011;13104;51.030;4.686;2023-09-08T03:55:40;17.25;;;12.88;;
25123;SDS011;13104;51.030;4.686;2023-09-08T03:58:06;20.70;;;13.30;;
25123;SDS011;13104;51.030;4.686;2023-09-08T04:00:32;14.10;;;11.52;;
25123;SDS011;13104;51.030;4.686;2023-09-08T04:02:58;15.50;;;11.63;;
25123;SDS011;13104;51.030;4.686;2023-09-08T04:05:24;22.05;;;11.88;;
25123;SDS011;13104;51.030;4.686;2023-09-08T04:07:50;12.68;;;11.02;;
25123;SDS011;13104;51.030;4.686;2023-09-08T04:10:17;17.75;;;11.10;;
25123;SDS011;13104;51.030;4.686;2023-09-08T04:12:43;15.50;;;11.23;;
25123;SDS011;13104;51.030;4.686;2023-09-08T04:15:09;12.23;;;10.13;;
25123;SDS011;13104;51.030;4.686;2023-09-08T04:17:36;14.27;;;10.98;;
25123;SDS011;13104;51.030;4.686;2023-09-08T04:20:05;17.30;;;12.48;;
25123;SDS011;13104;51.030;4.686;2023-09-08T04:22:33;18.38;;;12.30;;
25123;SDS011;13104;51.030;4.686;2023-09-08T04:24:59;16.20;;;12.00;;
25123;SDS011;13104;51.030;4.686;2023-09-08T04:27:25;16.67;;;11.05;;
25123;SDS011;13104;51.030;4.686;2023-09-08T04:29:51;14.32;;;10.95;;
25123;SDS011;13104;51.030;4.686;2023-09-08T04:32:17;12.50;;;10.18;;
25123;SDS011;13104;51.030;4.686;2023-09-08T04:34:43;16.33;;;10.55;;
25123;SDS011;13104;51.030;4.686;2023-09-08T04:37:10;13.13;;;10.45;;
25123;SDS011;13104;51.030;4.686;2023-09-08T04:39:36;13.50;;;10.57;;
25123;SDS011;13104;51.030;4.686;2023-09-08T04:42:02;18.73;;;11.40;;
25123;SDS011;13104;51.030;4.686;2023-09-08T04:44:28;17.27;;;12.55;;
25123;SDS011;13104;51.030;4.686;2023-09-08T04:46:55;16.27;;;12.32;;
25123;SDS011;13104;51.030;4.686;2023-09-08T04:49:21;16.45;;;13.13;;
25123;SDS011;13104;51.030;4.686;2023-09-08T04:51:47;17.27;;;12.30;;
25123;SDS011;13104;51.030;4.686;2023-09-08T04:54:13;14.68;;;11.63;;
25123;SDS011;13104;51.030;4.686;2023-09-08T04:56:39;16.23;;;13.07;;
25123;SDS011;13104;51.030;4.686;2023-09-08T04:59:05;15.38;;;12.32;;
25123;SDS011;13104;51.030;4.686;2023-09-08T05:01:32;14.10;;;11.18;;
25123;SDS011;13104;51.030;4.686;2023-09-08T05:03:58;18.30;;;11.70;;
25123;SDS011;13104;51.030;4.686;2023-09-08T05:06:24;16.48;;;11.60;;
25123;SDS011;13104;51.030;4.686;2023-09-08T05:08:51;19.23;;;12.07;;
25123;SDS011;13104;51.030;4.686;2023-09-08T05:11:17;16.52;;;11.85;;
25123;SDS011;13104;51.030;4.686;2023-09-08T05:13:44;20.38;;;12.75;;
25123;SDS011;13104;51.030;4.686;2023-09-08T05:16:10;17.65;;;12.35;;
25123;SDS011;13104;51.030;4.686;2023-09-08T05:18:37;16.27;;;12.38;;
25123;SDS011;13104;51.030;4.686;2023-09-08T05:21:03;20.13;;;11.95;;
25123;SDS011;13104;51.030;4.686;2023-09-08T05:23:30;15.30;;;12.60;;
25123;SDS011;13104;51.030;4.686;2023-09-08T05:25:56;17.13;;;12.65;;
25123;SDS011;13104;51.030;4.686;2023-09-08T05:28:22;15.07;;;12.60;;
25123;SDS011;13104;51.030;4.686;2023-09-08T05:30:52;16.65;;;13.13;;
25123;SDS011;13104;51.030;4.686;2023-09-08T05:33:18;18.95;;;13.15;;
25123;SDS011;13104;51.030;4.686;2023-09-08T05:35:44;18.85;;;12.90;;
25123;SDS011;13104;51.030;4.686;2023-09-08T05:38:11;16.88;;;12.88;;
25123;SDS011;13104;51.030;4.686;2023-09-08T05:40:37;17.30;;;12.40;;
25123;SDS011;13104;51.030;4.686;2023-09-08T05:43:03;14.38;;;12.88;;
25123;SDS011;13104;51.030;4.686;2023-09-08T05:45:31;16.48;;;13.23;;
25123;SDS011;13104;51.030;4.686;2023-09-08T05:47:57;20.52;;;12.65;;
25123;SDS011;13104;51.030;4.686;2023-09-08T05:50:23;16.48;;;12.73;;
25123;SDS011;13104;51.030;4.686;2023-09-08T05:52:50;21.10;;;14.20;;
25123;SDS011;13104;51.030;4.686;2023-09-08T05:55:16;18.52;;;13.50;;
25123;SDS011;13104;51.030;4.686;2023-09-08T05:57:43;18.83;;;14.20;;
25123;SDS011;13104;51.030;4.686;2023-09-08T06:00:09;17.90;;;13.95;;
25123;SDS011;13104;51.030;4.686;2023-09-08T06:02:35;16.88;;;13.95;;
25123;SDS011;13104;51.030;4.686;2023-09-08T06:05:02;17.17;;;13.63;;
25123;SDS011;13104;51.030;4.686;2023-09-08T06:07:28;18.00;;;13.93;;
25123;SDS011;13104;51.030;4.686;2023-09-08T06:09:54;18.52;;;13.20;;
25123;SDS011;13104;51.030;4.686;2023-09-08T06:12:21;22.13;;;13.65;;
25123;SDS011;13104;51.030;4.686;2023-09-08T06:14:47;17.98;;;13.68;;
25123;SDS011;13104;51.030;4.686;2023-09-08T06:17:13;17.67;;;13.82;;
25123;SDS011;13104;51.030;4.686;2023-09-08T06:19:39;15.45;;;13.35;;
25123;SDS011;13104;51.030;4.686;2023-09-08T06:22:05;17.92;;;14.15;;
25123;SDS011;13104;51.030;4.686;2023-09-08T06:24:31;18.63;;;14.63;;
25123;SDS011;13104;51.030;4.686;2023-09-08T06:26:57;23.15;;;14.82;;
25123;SDS011;13104;51.030;4.686;2023-09-08T06:29:24;17.35;;;13.35;;
25123;SDS011;13104;51.030;4.686;2023-09-08T06:31:50;21.35;;;14.68;;
25123;SDS011;13104;51.030;4.686;2023-09-08T06:34:16;16.75;;;13.95;;
25123;SDS011;13104;51.030;4.686;2023-09-08T06:36:45;22.67;;;14.82;;
25123;SDS011;13104;51.030;4.686;2023-09-08T06:39:11;22.33;;;14.75;;
25123;SDS011;13104;51.030;4.686;2023-09-08T06:41:37;18.30;;;14.30;;
25123;SDS011;13104;51.030;4.686;2023-09-08T06:44:04;20.48;;;14.13;;
25123;SDS011;13104;51.030;4.686;2023-09-08T06:46:30;18.73;;;14.68;;
25123;SDS011;13104;51.030;4.686;2023-09-08T06:48:56;18.50;;;14.80;;
25123;SDS011;13104;51.030;4.686;2023-09-08T06:51:22;18.33;;;14.18;;
25123;SDS011;13104;51.030;4.686;2023-09-08T06:53:57;19.17;;;13.85;;
25123;SDS011;13104;51.030;4.686;2023-09-08T06:56:25;17.88;;;14.18;;
25123;SDS011;13104;51.030;4.686;2023-09-08T06:58:51;18.45;;;14.07;;
25123;SDS011;13104;51.030;4.686;2023-09-08T07:01:17;20.05;;;14.02;;
25123;SDS011;13104;51.030;4.686;2023-09-08T07:03:43;21.33;;;14.32;;
25123;SDS011;13104;51.030;4.686;2023-09-08T07:06:10;20.35;;;14.90;;
25123;SDS011;13104;51.030;4.686;2023-09-08T07:08:36;17.80;;;14.63;;
25123;SDS011;13104;51.030;4.686;2023-09-08T07:11:02;16.15;;;13.25;;
25123;SDS011;13104;51.030;4.686;2023-09-08T07:13:28;17.25;;;13.40;;
25123;SDS011;13104;51.030;4.686;2023-09-08T07:15:54;22.40;;;13.50;;
25123;SDS011;13104;51.030;4.686;2023-09-08T07:18:20;15.30;;;12.52;;
25123;SDS011;13104;51.030;4.686;2023-09-08T07:20:47;14.52;;;12.40;;
25123;SDS011;13104;51.030;4.686;2023-09-08T07:23:16;16.05;;;13.40;;
25123;SDS011;13104;51.030;4.686;2023-09-08T07:25:48;20.38;;;14.00;;
25123;SDS011;13104;51.030;4.686;2023-09-08T07:28:15;17.50;;;12.23;;
25123;SDS011;13104;51.030;4.686;2023-09-08T07:30:42;14.25;;;12.00;;
25123;SDS011;13104;51.030;4.686;2023-09-08T07:33:08;15.23;;;11.48;;
25123;SDS011;13104;51.030;4.686;2023-09-08T07:35:40;16.00;;;12.05;;
25123;SDS011;13104;51.030;4.686;2023-09-08T07:38:06;14.65;;;11.52;;
25123;SDS011;13104;51.030;4.686;2023-09-08T07:40:32;15.18;;;11.57;;
25123;SDS011;13104;51.030;4.686;2023-09-08T07:42:59;20.48;;;12.35;;
25123;SDS011;13104;51.030;4.686;2023-09-08T07:45:25;19.02;;;11.80;;
25123;SDS011;13104;51.030;4.686;2023-09-08T07:47:51;16.40;;;11.38;;
25123;SDS011;13104;51.030;4.686;2023-09-08T07:50:21;17.08;;;11.38;;
25123;SDS011;13104;51.030;4.686;2023-09-08T07:52:48;17.30;;;10.77;;
25123;SDS011;13104;51.030;4.686;2023-09-08T07:55:15;14.02;;;11.05;;
25123;SDS011;13104;51.030;4.686;2023-09-08T07:57:44;14.45;;;9.90;;
25123;SDS011;13104;51.030;4.686;2023-09-08T08:00:11;16.73;;;10.25;;
25123;SDS011;13104;51.030;4.686;2023-09-08T08:02:41;17.35;;;10.50;;
25123;SDS011;13104;51.030;4.686;2023-09-08T08:05:07;12.27;;;9.82;;
25123;SDS011;13104;51.030;4.686;2023-09-08T08:07:34;14.88;;;9.95;;
25123;SDS011;13104;51.030;4.686;2023-09-08T08:10:00;12.40;;;9.15;;
25123;SDS011;13104;51.030;4.686;2023-09-08T08:12:26;12.95;;;9.77;;
25123;SDS011;13104;51.030;4.686;2023-09-08T08:14:52;14.18;;;9.93;;
25123;SDS011;13104;51.030;4.686;2023-09-08T08:17:18;15.30;;;9.27;;
25123;SDS011;13104;51.030;4.686;2023-09-08T08:19:45;15.15;;;9.48;;
25123;SDS011;13104;51.030;4.686;2023-09-08T08:22:12;14.15;;;9.00;;
25123;SDS011;13104;51.030;4.686;2023-09-08T08:24:38;13.35;;;9.60;;
25123;SDS011;13104;51.030;4.686;2023-09-08T08:27:04;14.30;;;9.35;;
25123;SDS011;13104;51.030;4.686;2023-09-08T08:29:30;10.98;;;9.20;;
25123;SDS011;13104;51.030;4.686;2023-09-08T08:31:56;13.85;;;8.73;;
25123;SDS011;13104;51.030;4.686;2023-09-08T08:34:23;12.63;;;8.55;;
25123;SDS011;13104;51.030;4.686;2023-09-08T08:36:49;15.05;;;9.05;;
25123;SDS011;13104;51.030;4.686;2023-09-08T08:39:15;11.82;;;8.77;;
25123;SDS011;13104;51.030;4.686;2023-09-08T08:41:41;10.85;;;8.90;;
25123;SDS011;13104;51.030;4.686;2023-09-08T08:44:07;17.38;;;8.27;;
25123;SDS011;13104;51.030;4.686;2023-09-08T08:46:35;12.95;;;8.93;;
25123;SDS011;13104;51.030;4.686;2023-09-08T08:49:02;13.55;;;8.07;;
25123;SDS011;13104;51.030;4.686;2023-09-08T08:51:30;11.45;;;8.10;;
25123;SDS011;13104;51.030;4.686;2023-09-08T08:53:56;11.68;;;7.90;;
25123;SDS011;13104;51.030;4.686;2023-09-08T08:56:23;12.45;;;8.38;;
25123;SDS011;13104;51.030;4.686;2023-09-08T08:58:50;10.90;;;8.70;;
25123;SDS011;13104;51.030;4.686;2023-09-08T09:01:16;13.45;;;9.07;;
25123;SDS011;13104;51.030;4.686;2023-09-08T09:03:44;12.48;;;8.10;;
25123;SDS011;13104;51.030;4.686;2023-09-08T09:06:13;12.32;;;8.10;;
25123;SDS011;13104;51.030;4.686;2023-09-08T09:08:40;10.65;;;7.53;;
25123;SDS011;13104;51.030;4.686;2023-09-08T09:11:08;11.20;;;8.13;;
25123;SDS011;13104;51.030;4.686;2023-09-08T09:13:34;14.10;;;8.35;;
25123;SDS011;13104;51.030;4.686;2023-09-08T09:16:00;12.60;;;7.45;;
25123;SDS011;13104;51.030;4.686;2023-09-08T09:18:28;11.38;;;7.10;;
25123;SDS011;13104;51.030;4.686;2023-09-08T09:20:55;10.68;;;7.45;;
25123;SDS011;13104;51.030;4.686;2023-09-08T09:23:30;11.85;;;8.13;;
25123;SDS011;13104;51.030;4.686;2023-09-08T09:28:23;9.82;;;7.30;;
25123;SDS011;13104;51.030;4.686;2023-09-08T09:30:51;13.57;;;7.50;;
25123;SDS011;13104;51.030;4.686;2023-09-08T09:33:19;13.90;;;7.18;;
25123;SDS011;13104;51.030;4.686;2023-09-08T09:35:53;14.77;;;7.07;;
25123;SDS011;13104;51.030;4.686;2023-09-08T09:38:20;11.23;;;7.32;;
25123;SDS011;13104;51.030;4.686;2023-09-08T09:40:47;9.88;;;7.20;;
25123;SDS011;13104;51.030;4.686;2023-09-08T09:43:14;13.65;;;7.57;;
25123;SDS011;13104;51.030;4.686;2023-09-08T09:45:41;11.07;;;7.38;;
25123;SDS011;13104;51.030;4.686;2023-09-08T09:48:08;10.30;;;6.68;;
25123;SDS011;13104;51.030;4.686;2023-09-08T09:50:35;9.75;;;6.85;;
25123;SDS011;13104;51.030;4.686;2023-09-08T09:53:03;13.15;;;7.22;;
25123;SDS011;13104;51.030;4.686;2023-09-08T09:55:29;14.30;;;6.63;;
25123;SDS011;13104;51.030;4.686;2023-09-08T09:57:55;8.40;;;6.70;;
25123;SDS011;13104;51.030;4.686;2023-09-08T10:00:24;11.25;;;6.82;;
25123;SDS011;13104;51.030;4.686;2023-09-08T10:02:51;12.35;;;6.47;;
25123;SDS011;13104;51.030;4.686;2023-09-08T10:05:17;10.48;;;6.85;;
25123;SDS011;13104;51.030;4.686;2023-09-08T10:07:44;10.65;;;6.57;;
25123;SDS011;13104;51.030;4.686;2023-09-08T10:10:11;11.30;;;6.72;;
25123;SDS011;13104;51.030;4.686;2023-09-08T10:12:37;11.80;;;6.85;;
25123;SDS011;13104;51.030;4.686;2023-09-08T10:15:05;9.98;;;6.60;;
25123;SDS011;13104;51.030;4.686;2023-09-08T10:17:31;10.52;;;6.53;;
25123;SDS011;13104;51.030;4.686;2023-09-08T10:20:00;12.35;;;6.82;;
25123;SDS011;13104;51.030;4.686;2023-09-08T10:22:33;12.75;;;7.03;;
25123;SDS011;13104;51.030;4.686;2023-09-08T10:25:01;9.93;;;6.75;;
25123;SDS011;13104;51.030;4.686;2023-09-08T10:27:28;9.75;;;6.35;;
25123;SDS011;13104;51.030;4.686;2023-09-08T10:29:54;14.23;;;6.32;;
25123;SDS011;13104;51.030;4.686;2023-09-08T10:32:21;13.45;;;6.45;;
25123;SDS011;13104;51.030;4.686;2023-09-08T10:34:47;12.88;;;5.78;;
25123;SDS011;13104;51.030;4.686;2023-09-08T10:37:21;9.50;;;5.57;;
25123;SDS011;13104;51.030;4.686;2023-09-08T10:47:41;10.43;;;6.10;;
25123;SDS011;13104;51.030;4.686;2023-09-08T10:50:01;8.68;;;6.07;;
25123;SDS011;13104;51.030;4.686;2023-09-08T10:52:29;11.43;;;6.25;;
25123;SDS011;13104;51.030;4.686;2023-09-08T10:54:57;10.40;;;6.05;;
25123;SDS011;13104;51.030;4.686;2023-09-08T10:57:24;11.73;;;6.13;;
25123;SDS011;13104;51.030;4.686;2023-09-08T10:59:55;10.48;;;6.10;;
25123;SDS011;13104;51.030;4.686;2023-09-08T11:05:14;8.18;;;6.15;;
25123;SDS011;13104;51.030;4.686;2023-09-08T11:07:41;8.80;;;6.07;;
25123;SDS011;13104;51.030;4.686;2023-09-08T11:10:08;7.72;;;5.50;;
25123;SDS011;13104;51.030;4.686;2023-09-08T11:12:35;7.40;;;5.45;;
25123;SDS011;13104;51.030;4.686;2023-09-08T11:15:04;7.88;;;5.50;;
25123;SDS011;13104;51.030;4.686;2023-09-08T11:17:32;11.13;;;5.93;;
25123;SDS011;13104;51.030;4.686;2023-09-08T11:19:59;10.15;;;5.55;;
25123;SDS011;13104;51.030;4.686;2023-09-08T11:22:27;6.93;;;5.43;;
25123;SDS011;13104;51.030;4.686;2023-09-08T11:24:58;8.00;;;5.70;;
25123;SDS011;13104;51.030;4.686;2023-09-08T11:27:25;7.53;;;5.28;;
25123;SDS011;13104;51.030;4.686;2023-09-08T11:29:54;8.77;;;5.00;;
25123;SDS011;13104;51.030;4.686;2023-09-08T11:32:21;10.40;;;5.35;;
25123;SDS011;13104;51.030;4.686;2023-09-08T11:34:48;9.13;;;5.40;;
25123;SDS011;13104;51.030;4.686;2023-09-08T11:37:15;8.07;;;5.00;;
25123;SDS011;13104;51.030;4.686;2023-09-08T11:39:43;7.00;;;4.70;;
25123;SDS011;13104;51.030;4.686;2023-09-08T11:42:11;5.93;;;4.93;;
25123;SDS011;13104;51.030;4.686;2023-09-08T11:44:37;12.57;;;5.00;;
25123;SDS011;13104;51.030;4.686;2023-09-08T11:47:04;8.98;;;5.30;;
25123;SDS011;13104;51.030;4.686;2023-09-08T11:49:33;8.30;;;5.10;;
25123;SDS011;13104;51.030;4.686;2023-09-08T11:52:00;6.88;;;5.05;;
25123;SDS011;13104;51.030;4.686;2023-09-08T11:54:26;11.55;;;5.00;;
25123;SDS011;13104;51.030;4.686;2023-09-08T11:56:52;7.50;;;4.47;;
25123;SDS011;13104;51.030;4.686;2023-09-08T11:59:18;7.47;;;4.70;;
25123;SDS011;13104;51.030;4.686;2023-09-08T12:01:45;7.30;;;4.30;;
25123;SDS011;13104;51.030;4.686;2023-09-08T12:04:20;7.95;;;4.20;;
25123;SDS011;13104;51.030;4.686;2023-09-08T12:06:47;8.32;;;4.22;;
25123;SDS011;13104;51.030;4.686;2023-09-08T12:09:14;9.30;;;4.15;;
25123;SDS011;13104;51.030;4.686;2023-09-08T12:11:40;7.30;;;4.25;;
25123;SDS011;13104;51.030;4.686;2023-09-08T12:14:08;4.70;;;3.97;;
25123;SDS011;13104;51.030;4.686;2023-09-08T12:16:36;6.32;;;3.67;;
25123;SDS011;13104;51.030;4.686;2023-09-08T12:19:02;10.45;;;4.45;;
25123;SDS011;13104;51.030;4.686;2023-09-08T12:21:28;6.18;;;3.90;;
25123;SDS011;13104;51.030;4.686;2023-09-08T12:23:57;13.43;;;4.65;;
25123;SDS011;13104;51.030;4.686;2023-09-08T12:26:26;7.70;;;3.90;;
25123;SDS011;13104;51.030;4.686;2023-09-08T12:28:54;11.68;;;4.30;;
25123;SDS011;13104;51.030;4.686;2023-09-08T12:31:23;9.65;;;4.18;;
25123;SDS011;13104;51.030;4.686;2023-09-08T12:33:52;5.97;;;3.90;;
25123;SDS011;13104;51.030;4.686;2023-09-08T12:36:23;8.15;;;3.80;;
25123;SDS011;13104;51.030;4.686;2023-09-08T12:38:52;7.28;;;4.05;;
25123;SDS011;13104;51.030;4.686;2023-09-08T12:41:19;10.05;;;4.45;;
25123;SDS011;13104;51.030;4.686;2023-09-08T12:43:46;7.72;;;3.92;;
25123;SDS011;13104;51.030;4.686;2023-09-08T12:46:12;5.57;;;3.72;;
25123;SDS011;13104;51.030;4.686;2023-09-08T12:48:38;9.93;;;3.92;;
25123;SDS011;13104;51.030;4.686;2023-09-08T12:51:04;5.15;;;3.67;;
25123;SDS011;13104;51.030;4.686;2023-09-08T12:53:33;16.15;;;4.30;;
25123;SDS011;13104;51.030;4.686;2023-09-08T12:56:03;17.23;;;3.95;;
25123;SDS011;13104;51.030;4.686;2023-09-08T12:58:29;9.70;;;3.85;;
25123;SDS011;13104;51.030;4.686;2023-09-08T13:00:55;13.73;;;4.00;;
25123;SDS011;13104;51.030;4.686;2023-09-08T13:03:22;8.10;;;4.63;;
25123;SDS011;13104;51.030;4.686;2023-09-08T13:05:48;7.50;;;4.28;;
25123;SDS011;13104;51.030;4.686;2023-09-08T13:08:14;9.13;;;4.72;;
25123;SDS011;13104;51.030;4.686;2023-09-08T13:10:40;8.15;;;3.97;;
25123;SDS011;13104;51.030;4.686;2023-09-08T13:13:06;9.52;;;4.38;;
25123;SDS011;13104;51.030;4.686;2023-09-08T13:15:32;8.40;;;4.13;;
25123;SDS011;13104;51.030;4.686;2023-09-08T13:18:00;8.68;;;4.47;;
25123;SDS011;13104;51.030;4.686;2023-09-08T13:20:29;6.05;;;4.40;;
25123;SDS011;13104;51.030;4.686;2023-09-08T13:22:58;7.05;;;4.70;;
25123;SDS011;13104;51.030;4.686;2023-09-08T13:25:26;11.13;;;4.30;;
25123;SDS011;13104;51.030;4.686;2023-09-08T13:27:56;13.88;;;4.50;;
25123;SDS011;13104;51.030;4.686;2023-09-08T13:30:25;10.35;;;4.40;;
25123;SDS011;13104;51.030;4.686;2023-09-08T13:32:54;10.90;;;4.68;;
25123;SDS011;13104;51.030;4.686;2023-09-08T13:35:22;7.97;;;4.25;;
25123;SDS011;13104;51.030;4.686;2023-09-08T13:37:49;12.13;;;4.55;;
25123;SDS011;13104;51.030;4.686;2023-09-08T13:40:16;10.93;;;4.88;;
25123;SDS011;13104;51.030;4.686;2023-09-08T13:42:42;7.80;;;4.22;;
25123;SDS011;13104;51.030;4.686;2023-09-08T13:45:10;13.40;;;4.82;;
25123;SDS011;13104;51.030;4.686;2023-09-08T13:47:36;9.90;;;4.53;;
25123;SDS011;13104;51.030;4.686;2023-09-08T13:50:03;13.20;;;4.68;;
25123;SDS011;13104;51.030;4.686;2023-09-08T13:52:29;8.70;;;4.65;;
25123;SDS011;13104;51.030;4.686;2023-09-08T13:54:55;9.85;;;4.75;;
25123;SDS011;13104;51.030;4.686;2023-09-08T13:57:21;10.75;;;4.50;;
25123;SDS011;13104;51.030;4.686;2023-09-08T13:59:50;10.95;;;4.82;;
25123;SDS011;13104;51.030;4.686;2023-09-08T14:02:17;14.02;;;4.55;;
25123;SDS011;13104;51.030;4.686;2023-09-08T14:04:43;10.48;;;4.50;;
25123;SDS011;13104;51.030;4.686;2023-09-08T14:07:09;10.70;;;4.50;;
25123;SDS011;13104;51.030;4.686;2023-09-08T14:09:36;8.82;;;4.80;;
25123;SDS011;13104;51.030;4.686;2023-09-08T14:12:02;12.00;;;4.60;;
25123;SDS011;13104;51.030;4.686;2023-09-08T14:14:28;12.93;;;4.55;;
25123;SDS011;13104;51.030;4.686;2023-09-08T14:16:54;12.63;;;5.05;;
25123;SDS011;13104;51.030;4.686;2023-09-08T14:19:20;11.88;;;5.00;;
25123;SDS011;13104;51.030;4.686;2023-09-08T14:21:46;8.85;;;4.47;;
25123;SDS011;13104;51.030;4.686;2023-09-08T14:24:12;8.18;;;4.57;;
25123;SDS011;13104;51.030;4.686;2023-09-08T14:26:39;11.45;;;4.65;;
25123;SDS011;13104;51.030;4.686;2023-09-08T14:29:05;12.25;;;4.50;;
25123;SDS011;13104;51.030;4.686;2023-09-08T14:31:31;20.70;;;5.18;;
25123;SDS011;13104;51.030;4.686;2023-09-08T14:33:57;15.90;;;4.70;;
25123;SDS011;13104;51.030;4.686;2023-09-08T14:36:23;11.88;;;4.70;;
25123;SDS011;13104;51.030;4.686;2023-09-08T14:38:49;7.45;;;4.10;;
25123;SDS011;13104;51.030;4.686;2023-09-08T14:41:15;14.57;;;4.93;;
25123;SDS011;13104;51.030;4.686;2023-09-08T14:43:42;11.15;;;4.00;;